createdAt,value
2018-01-17T00:00:30.300Z,986.94
2018-01-17T00:01:30.247Z,986.94
2018-01-17T00:02:30.206Z,986.91
2018-01-17T00:03:30.183Z,986.88
2018-01-17T00:04:30.145Z,986.88
2018-01-17T00:05:30.074Z,986.79
2018-01-17T00:06:30.038Z,986.81
2018-01-17T00:07:29.984Z,986.82
2018-01-17T00:08:29.953Z,986.78
2018-01-17T00:09:29.908Z,986.82
2018-01-17T00:10:29.889Z,986.89
2018-01-17T00:11:29.829Z,986.85
2018-01-17T00:12:29.773Z,986.78
2018-01-17T00:13:29.734Z,986.83
2018-01-17T00:14:29.694Z,986.75
2018-01-17T00:15:29.680Z,986.79
2018-01-17T00:16:29.613Z,986.83
2018-01-17T00:17:29.573Z,986.87
2018-01-17T00:18:29.523Z,986.90
2018-01-17T00:19:29.481Z,986.87
2018-01-17T00:20:29.443Z,986.88
2018-01-17T00:21:29.426Z,986.89
2018-01-17T00:22:29.369Z,986.80
2018-01-17T00:23:29.306Z,986.80
2018-01-17T00:24:29.274Z,986.77
2018-01-17T00:25:29.224Z,986.79
2018-01-17T00:26:29.195Z,986.73
2018-01-17T00:27:29.166Z,986.74
2018-01-17T00:28:29.105Z,986.81
2018-01-17T00:29:29.055Z,986.81
2018-01-17T00:30:29.017Z,986.79
2018-01-17T00:31:28.984Z,986.83
2018-01-17T00:32:28.961Z,986.71
2018-01-17T00:33:28.882Z,986.61
2018-01-17T00:34:28.844Z,986.64
2018-01-17T00:35:28.809Z,986.63
2018-01-17T00:36:28.766Z,986.64
2018-01-17T00:37:28.720Z,986.56
2018-01-17T00:38:28.708Z,986.57
2018-01-17T00:39:28.630Z,986.53
2018-01-17T00:40:28.592Z,986.50
2018-01-17T00:41:28.584Z,986.50
2018-01-17T00:42:28.513Z,986.47
2018-01-17T00:43:28.495Z,986.48
2018-01-17T00:44:28.420Z,986.50
2018-01-17T00:45:28.392Z,986.49
2018-01-17T00:46:28.336Z,986.49
2018-01-17T00:47:28.301Z,986.46
2018-01-17T00:48:28.251Z,986.48
2018-01-17T00:49:28.245Z,986.49
2018-01-17T00:50:28.168Z,986.49
2018-01-17T00:51:28.130Z,986.49
2018-01-17T00:52:28.092Z,986.52
2018-01-17T00:53:28.053Z,986.56
2018-01-17T00:54:28.070Z,986.64
2018-01-17T00:55:27.962Z,986.64
2018-01-17T00:56:27.925Z,986.61
2018-01-17T00:57:27.873Z,986.66
2018-01-17T00:58:27.827Z,986.58
2018-01-17T00:59:27.796Z,986.57
2018-01-17T01:00:27.772Z,986.62
2018-01-17T01:01:27.709Z,986.66
2018-01-17T01:02:27.666Z,986.64
2018-01-17T01:03:27.619Z,986.67
2018-01-17T01:04:27.575Z,986.71
2018-01-17T01:05:27.541Z,986.72
2018-01-17T01:06:27.521Z,986.67
2018-01-17T01:07:27.448Z,986.70
2018-01-17T01:08:27.400Z,986.68
2018-01-17T01:09:27.364Z,986.71
2018-01-17T01:10:27.320Z,986.73
2018-01-17T01:11:27.312Z,986.73
2018-01-17T01:12:27.240Z,986.77
2018-01-17T01:13:27.199Z,986.68
2018-01-17T01:14:27.148Z,986.66
2018-01-17T01:15:27.109Z,986.65
2018-01-17T01:16:27.059Z,986.61
2018-01-17T01:17:27.052Z,986.62
2018-01-17T01:18:26.984Z,986.57
2018-01-17T01:19:26.943Z,986.63
2018-01-17T01:20:26.905Z,986.62
2018-01-17T01:21:26.858Z,986.64
2018-01-17T01:22:26.833Z,986.62
2018-01-17T01:23:26.774Z,986.64
2018-01-17T01:24:26.724Z,986.72
2018-01-17T01:25:26.694Z,986.65
2018-01-17T01:26:26.647Z,986.67
2018-01-17T01:27:26.634Z,986.70
2018-01-17T01:28:26.557Z,986.69
2018-01-17T01:29:26.520Z,986.68
2018-01-17T01:30:26.476Z,986.75
2018-01-17T01:31:26.434Z,986.72
2018-01-17T01:32:26.420Z,986.69
2018-01-17T01:33:26.346Z,986.79
2018-01-17T01:34:26.303Z,986.73
2018-01-17T01:35:26.261Z,986.71
2018-01-17T01:36:26.226Z,986.72
2018-01-17T01:37:26.176Z,986.66
2018-01-17T01:38:26.170Z,986.69
2018-01-17T01:39:26.097Z,986.67
2018-01-17T01:40:26.055Z,986.77
2018-01-17T01:41:26.019Z,986.72
2018-01-17T01:42:25.978Z,986.75
2018-01-17T01:43:25.925Z,986.80
2018-01-17T01:44:25.906Z,986.77
2018-01-17T01:45:25.841Z,986.79
2018-01-17T01:46:25.803Z,986.81
2018-01-17T01:47:25.754Z,986.72
2018-01-17T01:48:25.713Z,986.88
2018-01-17T01:49:25.668Z,986.86
2018-01-17T01:50:25.654Z,986.71
2018-01-17T01:51:25.594Z,986.85
2018-01-17T01:52:25.551Z,986.89
2018-01-17T01:53:25.504Z,986.73
2018-01-17T01:54:25.455Z,986.90
2018-01-17T01:55:25.448Z,986.83
2018-01-17T01:56:25.379Z,986.86
2018-01-17T01:57:25.331Z,986.93
2018-01-17T01:58:25.295Z,986.92
2018-01-17T01:59:25.245Z,986.89
2018-01-17T02:00:25.218Z,986.91
2018-01-17T02:01:25.187Z,986.95
2018-01-17T02:02:25.129Z,986.90
2018-01-17T02:03:25.075Z,986.89
2018-01-17T02:04:25.041Z,986.90
2018-01-17T02:05:24.997Z,986.88
2018-01-17T02:06:24.956Z,986.92
2018-01-17T02:07:24.932Z,986.91
2018-01-17T02:08:24.873Z,986.93
2018-01-17T02:09:24.823Z,986.97
2018-01-17T02:10:24.783Z,986.98
2018-01-17T02:11:24.744Z,987.01
2018-01-17T02:12:24.732Z,986.99
2018-01-17T02:13:24.657Z,987.01
2018-01-17T02:14:24.612Z,986.99
2018-01-17T02:15:24.573Z,987.06
2018-01-17T02:16:24.528Z,987.27
2018-01-17T02:17:24.481Z,987.39
2018-01-17T02:18:24.471Z,987.29
2018-01-17T02:19:24.400Z,987.33
2018-01-17T02:20:24.356Z,987.36
2018-01-17T02:21:24.314Z,987.40
2018-01-17T02:22:24.278Z,987.35
2018-01-17T02:23:24.234Z,987.34
2018-01-17T02:24:24.217Z,987.38
2018-01-17T02:25:24.151Z,987.34
2018-01-17T02:26:24.102Z,987.38
2018-01-17T02:27:24.058Z,987.39
2018-01-17T02:28:24.018Z,987.33
2018-01-17T02:29:24.010Z,987.36
2018-01-17T02:30:23.938Z,987.25
2018-01-17T02:31:23.887Z,987.42
2018-01-17T02:32:23.846Z,987.30
2018-01-17T02:33:23.809Z,987.35
2018-01-17T02:34:23.770Z,987.27
2018-01-17T02:35:23.748Z,987.32
2018-01-17T02:36:23.676Z,987.30
2018-01-17T02:37:23.639Z,987.25
2018-01-17T02:38:23.590Z,987.24
2018-01-17T02:39:23.549Z,987.25
2018-01-17T02:40:23.502Z,987.25
2018-01-17T02:41:23.493Z,987.26
2018-01-17T02:42:23.416Z,987.36
2018-01-17T02:43:23.384Z,987.32
2018-01-17T02:44:23.332Z,987.31
2018-01-17T02:45:23.291Z,987.35
2018-01-17T02:46:23.242Z,987.49
2018-01-17T02:47:23.224Z,987.55
2018-01-17T02:48:23.160Z,987.52
2018-01-17T02:49:23.117Z,987.54
2018-01-17T02:50:23.080Z,987.53
2018-01-17T02:51:23.033Z,987.50
2018-01-17T02:52:22.984Z,987.49
2018-01-17T02:53:22.968Z,987.47
2018-01-17T02:54:22.903Z,987.51
2018-01-17T02:55:22.852Z,987.57
2018-01-17T02:56:22.815Z,987.59
2018-01-17T02:57:22.788Z,987.59
2018-01-17T02:58:22.735Z,987.57
2018-01-17T02:59:22.705Z,987.68
2018-01-17T03:00:22.637Z,987.68
2018-01-17T03:01:22.596Z,987.61
2018-01-17T03:02:22.550Z,987.62
2018-01-17T03:03:22.505Z,987.74
2018-01-17T03:04:22.464Z,987.64
2018-01-17T03:05:22.453Z,987.58
2018-01-17T03:06:22.382Z,987.52
2018-01-17T03:07:22.336Z,987.51
2018-01-17T03:08:22.296Z,987.51
2018-01-17T03:09:22.244Z,987.62
2018-01-17T03:10:22.210Z,987.54
2018-01-17T03:11:22.186Z,987.70
2018-01-17T03:12:22.121Z,987.62
2018-01-17T03:13:22.074Z,987.76
2018-01-17T03:14:22.044Z,987.76
2018-01-17T03:15:21.989Z,987.73
2018-01-17T03:16:21.957Z,987.68
2018-01-17T03:17:21.933Z,987.71
2018-01-17T03:18:21.873Z,987.68
2018-01-17T03:19:21.816Z,987.70
2018-01-17T03:20:21.768Z,987.68
2018-01-17T03:21:21.725Z,987.73
2018-01-17T03:22:21.689Z,987.72
2018-01-17T03:23:21.676Z,987.75
2018-01-17T03:24:21.599Z,987.75
2018-01-17T03:25:21.553Z,987.69
2018-01-17T03:26:21.522Z,987.74
2018-01-17T03:27:21.466Z,987.71
2018-01-17T03:28:21.418Z,987.70
2018-01-17T03:29:21.413Z,987.73
2018-01-17T03:30:21.337Z,987.74
2018-01-17T03:31:21.297Z,987.78
2018-01-17T03:32:21.250Z,987.82
2018-01-17T03:33:21.213Z,987.87
2018-01-17T03:34:21.155Z,987.88
2018-01-17T03:35:21.140Z,987.89
2018-01-17T03:36:21.074Z,987.86
2018-01-17T03:37:21.021Z,987.73
2018-01-17T03:38:20.985Z,987.80
2018-01-17T03:39:20.940Z,987.86
2018-01-17T03:40:20.894Z,987.93
2018-01-17T03:41:20.884Z,987.89
2018-01-17T03:42:20.803Z,987.91
2018-01-17T03:43:20.764Z,987.92
2018-01-17T03:44:20.715Z,987.91
2018-01-17T03:45:20.680Z,987.91
2018-01-17T03:46:20.631Z,987.87
2018-01-17T03:47:20.612Z,988.00
2018-01-17T03:48:20.539Z,987.99
2018-01-17T03:49:20.496Z,987.98
2018-01-17T03:50:20.453Z,987.97
2018-01-17T03:51:20.408Z,988.00
2018-01-17T03:52:20.398Z,988.03
2018-01-17T03:53:20.329Z,988.05
2018-01-17T03:54:20.280Z,987.99
2018-01-17T03:55:20.238Z,988.06
2018-01-17T03:56:20.196Z,988.10
2018-01-17T03:57:20.155Z,988.10
2018-01-17T03:58:20.130Z,988.10
2018-01-17T03:59:20.055Z,988.11
2018-01-17T04:00:20.018Z,988.10
2018-01-17T04:01:19.972Z,988.15
2018-01-17T04:02:19.973Z,988.20
2018-01-17T04:03:19.892Z,988.22
2018-01-17T04:04:19.878Z,988.20
2018-01-17T04:05:19.796Z,988.24
2018-01-17T04:06:19.755Z,988.25
2018-01-17T04:07:19.710Z,988.23
2018-01-17T04:08:19.671Z,988.27
2018-01-17T04:09:19.621Z,988.32
2018-01-17T04:10:19.601Z,988.33
2018-01-17T04:11:19.537Z,988.32
2018-01-17T04:12:19.487Z,988.34
2018-01-17T04:13:19.447Z,988.30
2018-01-17T04:14:19.398Z,988.25
2018-01-17T04:15:19.355Z,988.31
2018-01-17T04:16:19.331Z,988.32
2018-01-17T04:17:19.273Z,988.30
2018-01-17T04:18:19.230Z,988.25
2018-01-17T04:19:19.185Z,988.22
2018-01-17T04:20:19.135Z,988.25
2018-01-17T04:21:19.116Z,988.28
2018-01-17T04:22:19.048Z,988.29
2018-01-17T04:23:19.004Z,988.31
2018-01-17T04:24:18.967Z,988.31
2018-01-17T04:25:18.923Z,988.26
2018-01-17T04:26:18.908Z,988.28
2018-01-17T04:27:18.833Z,988.27
2018-01-17T04:28:18.793Z,988.33
2018-01-17T04:29:18.746Z,988.29
2018-01-17T04:30:18.699Z,988.36
2018-01-17T04:31:18.653Z,988.36
2018-01-17T04:32:18.639Z,988.32
2018-01-17T04:33:18.565Z,988.37
2018-01-17T04:34:18.536Z,988.32
2018-01-17T04:35:18.483Z,988.41
2018-01-17T04:36:18.443Z,988.40
2018-01-17T04:37:18.398Z,988.41
2018-01-17T04:38:18.380Z,988.46
2018-01-17T04:39:18.311Z,988.42
2018-01-17T04:40:18.267Z,988.46
2018-01-17T04:41:18.216Z,988.48
2018-01-17T04:42:18.177Z,988.49
2018-01-17T04:43:18.134Z,988.54
2018-01-17T04:44:18.114Z,988.52
2018-01-17T04:45:18.048Z,988.50
2018-01-17T04:46:18.001Z,988.59
2018-01-17T04:47:17.964Z,988.58
2018-01-17T04:48:17.913Z,988.66
2018-01-17T04:49:17.896Z,988.70
2018-01-17T04:50:17.827Z,988.70
2018-01-17T04:51:17.798Z,988.56
2018-01-17T04:52:17.739Z,988.60
2018-01-17T04:53:17.699Z,988.74
2018-01-17T04:54:17.650Z,988.70
2018-01-17T04:55:17.632Z,988.76
2018-01-17T04:56:17.565Z,988.72
2018-01-17T04:57:28.666Z,988.78
2018-01-17T04:58:17.475Z,988.83
2018-01-17T04:59:17.440Z,988.84
2018-01-17T05:00:17.391Z,988.88
2018-01-17T05:01:17.379Z,989.00
2018-01-17T05:02:17.304Z,988.97
2018-01-17T05:03:17.260Z,988.97
2018-01-17T05:04:17.215Z,988.93
2018-01-17T05:05:17.176Z,988.85
2018-01-17T05:06:17.135Z,988.95
2018-01-17T05:07:17.103Z,988.99
2018-01-17T05:08:17.036Z,989.01
2018-01-17T05:09:16.999Z,989.06
2018-01-17T05:10:16.955Z,989.13
2018-01-17T05:11:16.903Z,989.13
2018-01-17T05:12:16.889Z,989.07
2018-01-17T05:13:16.823Z,989.12
2018-01-17T05:14:16.776Z,989.15
2018-01-17T05:15:16.742Z,989.20
2018-01-17T05:16:16.687Z,989.24
2018-01-17T05:17:16.648Z,989.28
2018-01-17T05:18:16.628Z,989.33
2018-01-17T05:19:16.561Z,989.35
2018-01-17T05:20:16.510Z,989.39
2018-01-17T05:21:16.475Z,989.45
2018-01-17T05:22:16.426Z,989.48
2018-01-17T05:23:16.389Z,989.58
2018-01-17T05:24:16.367Z,989.55
2018-01-17T05:25:16.296Z,989.61
2018-01-17T05:26:16.249Z,989.54
2018-01-17T05:27:16.201Z,989.65
2018-01-17T05:28:16.162Z,989.62
2018-01-17T05:29:16.116Z,989.61
2018-01-17T05:30:16.099Z,989.65
2018-01-17T05:31:16.029Z,989.64
2018-01-17T05:32:15.987Z,989.67
2018-01-17T05:33:15.948Z,989.75
2018-01-17T05:34:15.909Z,989.77
2018-01-17T05:35:15.857Z,989.78
2018-01-17T05:36:15.835Z,989.80
2018-01-17T05:37:15.763Z,989.80
2018-01-17T05:38:15.728Z,989.87
2018-01-17T05:39:15.683Z,989.92
2018-01-17T05:40:15.640Z,989.95
2018-01-17T05:41:15.589Z,989.96
2018-01-17T05:42:15.572Z,989.84
2018-01-17T05:43:15.509Z,989.88
2018-01-17T05:44:15.467Z,989.93
2018-01-17T05:45:15.412Z,989.93
2018-01-17T05:46:15.378Z,989.90
2018-01-17T05:47:15.327Z,989.98
2018-01-17T05:48:15.307Z,989.96
2018-01-17T05:49:15.250Z,990.06
2018-01-17T05:50:15.197Z,990.00
2018-01-17T05:51:15.152Z,990.00
2018-01-17T05:52:15.109Z,990.07
2018-01-17T05:53:15.096Z,990.06
2018-01-17T05:54:15.023Z,990.06
2018-01-17T05:55:14.984Z,990.05
2018-01-17T05:56:14.929Z,990.00
2018-01-17T05:57:14.889Z,989.96
2018-01-17T05:58:14.874Z,990.02
2018-01-17T05:59:14.804Z,990.04
2018-01-17T06:00:14.763Z,990.03
2018-01-17T06:01:14.717Z,990.08
2018-01-17T06:02:14.670Z,990.05
2018-01-17T06:03:14.630Z,990.13
2018-01-17T06:04:14.608Z,990.18
2018-01-17T06:05:14.542Z,990.14
2018-01-17T06:06:14.496Z,990.13
2018-01-17T06:07:14.454Z,990.18
2018-01-17T06:08:14.407Z,990.25
2018-01-17T06:09:14.388Z,990.24
2018-01-17T06:10:14.317Z,990.26
2018-01-17T06:11:14.274Z,990.31
2018-01-17T06:12:14.227Z,990.27
2018-01-17T06:13:14.189Z,990.32
2018-01-17T06:14:14.149Z,990.35
2018-01-17T06:15:14.134Z,990.34
2018-01-17T06:16:14.057Z,990.39
2018-01-17T06:17:14.014Z,990.37
2018-01-17T06:18:13.967Z,990.40
2018-01-17T06:19:13.930Z,990.48
2018-01-17T06:20:13.888Z,990.42
2018-01-17T06:21:13.867Z,990.45
2018-01-17T06:22:13.797Z,990.46
2018-01-17T06:23:13.754Z,990.46
2018-01-17T06:24:13.703Z,990.52
2018-01-17T06:25:13.666Z,990.47
2018-01-17T06:26:13.651Z,990.48
2018-01-17T06:27:13.578Z,990.55
2018-01-17T06:28:13.537Z,990.51
2018-01-17T06:29:13.492Z,990.61
2018-01-17T06:30:13.445Z,990.62
2018-01-17T06:31:13.393Z,990.67
2018-01-17T06:32:13.380Z,990.68
2018-01-17T06:33:13.337Z,990.64
2018-01-17T06:34:13.277Z,990.76
2018-01-17T06:35:13.216Z,990.70
2018-01-17T06:36:13.185Z,990.80
2018-01-17T06:37:13.144Z,990.67
2018-01-17T06:38:13.124Z,990.72
2018-01-17T06:39:13.045Z,990.77
2018-01-17T06:40:13.004Z,990.87
2018-01-17T06:41:12.959Z,990.89
2018-01-17T06:42:12.916Z,990.92
2018-01-17T06:43:12.869Z,990.85
2018-01-17T06:44:12.857Z,990.92
2018-01-17T06:45:12.781Z,991.01
2018-01-17T06:46:12.745Z,990.99
2018-01-17T06:47:12.700Z,991.01
2018-01-17T06:48:12.667Z,991.08
2018-01-17T06:49:12.606Z,991.05
2018-01-17T06:50:12.587Z,991.12
2018-01-17T06:51:12.522Z,991.13
2018-01-17T06:52:12.485Z,991.18
2018-01-17T06:53:12.429Z,991.18
2018-01-17T06:54:12.396Z,991.21
2018-01-17T06:55:12.381Z,991.21
2018-01-17T06:56:12.314Z,991.22
2018-01-17T06:57:12.257Z,991.24
2018-01-17T06:58:12.219Z,991.27
2018-01-17T06:59:12.177Z,991.29
2018-01-17T07:00:12.136Z,991.27
2018-01-17T07:01:12.116Z,991.32
2018-01-17T07:02:12.047Z,991.34
2018-01-17T07:03:11.992Z,991.37
2018-01-17T07:04:11.955Z,991.37
2018-01-17T07:05:11.907Z,991.45
2018-01-17T07:06:11.870Z,991.37
2018-01-17T07:07:11.858Z,991.49
2018-01-17T07:08:11.785Z,991.50
2018-01-17T07:09:11.739Z,991.55
2018-01-17T07:10:11.688Z,991.56
2018-01-17T07:11:11.645Z,991.62
2018-01-17T07:12:11.602Z,991.62
2018-01-17T07:13:11.629Z,991.55
2018-01-17T07:14:11.529Z,991.62
2018-01-17T07:15:11.479Z,991.65
2018-01-17T07:16:11.437Z,991.63
2018-01-17T07:17:11.391Z,991.61
2018-01-17T07:18:11.367Z,991.66
2018-01-17T07:19:11.302Z,991.75
2018-01-17T07:20:11.267Z,991.76
2018-01-17T07:21:11.223Z,991.79
2018-01-17T07:22:11.188Z,991.71
2018-01-17T07:23:11.153Z,991.78
2018-01-17T07:24:11.100Z,991.82
2018-01-17T07:25:11.036Z,991.84
2018-01-17T07:26:10.999Z,991.87
2018-01-17T07:27:10.950Z,991.95
2018-01-17T07:28:10.953Z,991.80
2018-01-17T07:29:10.869Z,991.88
2018-01-17T07:30:10.832Z,991.98
2018-01-17T07:31:10.775Z,991.99
2018-01-17T07:32:10.740Z,991.98
2018-01-17T07:33:10.684Z,992.00
2018-01-17T07:34:10.675Z,992.07
2018-01-17T07:35:10.598Z,992.09
2018-01-17T07:36:10.617Z,992.12
2018-01-17T07:37:10.524Z,992.11
2018-01-17T07:38:10.478Z,992.11
2018-01-17T07:39:10.460Z,992.15
2018-01-17T07:40:10.390Z,992.24
2018-01-17T07:41:10.345Z,992.19
2018-01-17T07:42:10.295Z,992.28
2018-01-17T07:43:10.257Z,992.27
2018-01-17T07:44:10.243Z,992.35
2018-01-17T07:45:10.165Z,992.37
2018-01-17T07:46:10.126Z,992.39
2018-01-17T07:47:10.074Z,992.39
2018-01-17T07:48:10.044Z,992.50
2018-01-17T07:49:09.995Z,992.52
2018-01-17T07:50:10.027Z,992.55
2018-01-17T07:51:09.907Z,992.55
2018-01-17T07:52:09.872Z,992.60
2018-01-17T07:53:09.814Z,992.65
2018-01-17T07:54:09.771Z,992.63
2018-01-17T07:55:09.735Z,992.58
2018-01-17T07:56:09.771Z,992.66
2018-01-17T07:57:09.665Z,992.73
2018-01-17T07:58:09.605Z,992.67
2018-01-17T07:59:09.562Z,992.68
2018-01-17T08:00:09.520Z,992.78
2018-01-17T08:01:09.471Z,992.74
2018-01-17T08:02:09.665Z,992.86
2018-01-17T08:03:09.383Z,992.88
2018-01-17T08:04:09.341Z,992.91
2018-01-17T08:05:09.298Z,992.95
2018-01-17T08:06:09.252Z,992.95
2018-01-17T08:07:09.212Z,993.04
2018-01-17T08:08:09.202Z,993.09
2018-01-17T08:09:09.118Z,993.09
2018-01-17T08:10:09.081Z,993.12
2018-01-17T08:11:09.029Z,993.08
2018-01-17T08:12:08.991Z,993.13
2018-01-17T08:13:09.060Z,993.10
2018-01-17T08:14:08.915Z,993.11
2018-01-17T08:15:08.877Z,993.11
2018-01-17T08:16:08.855Z,993.22
2018-01-17T08:17:08.776Z,993.16
2018-01-17T08:18:08.768Z,993.19
2018-01-17T08:19:08.693Z,993.23
2018-01-17T08:20:08.666Z,993.20
2018-01-17T08:21:08.604Z,993.19
2018-01-17T08:22:08.549Z,993.21
2018-01-17T08:23:08.507Z,993.21
2018-01-17T08:24:08.488Z,993.14
2018-01-17T08:25:08.423Z,993.29
2018-01-17T08:26:08.383Z,993.21
2018-01-17T08:27:08.345Z,993.25
2018-01-17T08:28:08.300Z,993.30
2018-01-17T08:29:08.274Z,993.29
2018-01-17T08:30:08.208Z,993.37
2018-01-17T08:31:08.165Z,993.44
2018-01-17T08:32:08.125Z,993.47
2018-01-17T08:33:08.083Z,993.51
2018-01-17T08:34:08.094Z,993.62
2018-01-17T08:35:07.990Z,993.61
2018-01-17T08:36:07.945Z,993.68
2018-01-17T08:37:07.899Z,993.66
2018-01-17T08:38:07.858Z,993.65
2018-01-17T08:39:07.811Z,993.66
2018-01-17T08:40:07.802Z,993.69
2018-01-17T08:41:07.746Z,993.70
2018-01-17T08:42:07.689Z,993.79
2018-01-17T08:43:07.660Z,993.75
2018-01-17T08:44:07.603Z,993.77
2018-01-17T08:45:07.570Z,993.80
2018-01-17T08:46:07.552Z,993.88
2018-01-17T08:47:07.494Z,993.81
2018-01-17T08:48:07.433Z,993.78
2018-01-17T08:49:07.385Z,993.85
2018-01-17T08:50:07.345Z,993.83
2018-01-17T08:51:07.311Z,993.87
2018-01-17T08:52:07.308Z,993.83
2018-01-17T08:53:07.216Z,993.89
2018-01-17T08:54:07.165Z,993.83
2018-01-17T08:55:07.127Z,993.94
2018-01-17T08:56:07.083Z,993.89
2018-01-17T08:57:07.070Z,993.96
2018-01-17T08:58:07.030Z,993.96
2018-01-17T08:59:06.950Z,994.03
2018-01-17T09:00:06.932Z,994.00
2018-01-17T09:01:06.866Z,993.92
2018-01-17T09:02:06.830Z,993.96
2018-01-17T09:03:06.812Z,994.02
2018-01-17T09:04:06.747Z,994.00
2018-01-17T09:05:06.699Z,994.02
2018-01-17T09:06:06.655Z,993.98
2018-01-17T09:07:06.615Z,994.10
2018-01-17T09:08:06.580Z,994.07
2018-01-17T09:09:06.560Z,994.08
2018-01-17T09:10:06.488Z,994.16
2018-01-17T09:11:06.436Z,994.25
2018-01-17T09:12:06.429Z,994.21
2018-01-17T09:13:06.349Z,994.26
2018-01-17T09:14:06.311Z,994.31
2018-01-17T09:15:06.303Z,994.22
2018-01-17T09:16:06.227Z,994.33
2018-01-17T09:17:06.228Z,994.34
2018-01-17T09:18:06.139Z,994.39
2018-01-17T09:19:06.108Z,994.38
2018-01-17T09:20:06.050Z,994.33
2018-01-17T09:21:06.032Z,994.44
2018-01-17T09:22:05.965Z,994.34
2018-01-17T09:23:05.931Z,994.40
2018-01-17T09:24:05.884Z,994.35
2018-01-17T09:25:05.843Z,994.44
2018-01-17T09:26:05.840Z,994.43
2018-01-17T09:27:05.785Z,994.37
2018-01-17T09:28:05.716Z,994.45
2018-01-17T09:29:05.672Z,994.43
2018-01-17T09:30:05.633Z,994.48
2018-01-17T09:31:05.584Z,994.48
2018-01-17T09:32:05.567Z,994.49
2018-01-17T09:33:05.495Z,994.58
2018-01-17T09:34:05.491Z,994.54
2018-01-17T09:35:05.420Z,994.62
2018-01-17T09:36:05.409Z,994.59
2018-01-17T09:37:05.332Z,994.63
2018-01-17T09:38:05.308Z,994.61
2018-01-17T09:39:05.252Z,994.65
2018-01-17T09:40:05.218Z,994.58
2018-01-17T09:41:05.163Z,994.61
2018-01-17T09:42:05.138Z,994.63
2018-01-17T09:43:05.074Z,994.68
2018-01-17T09:44:05.042Z,994.67
2018-01-17T09:45:04.994Z,994.69
2018-01-17T09:46:04.985Z,994.56
2018-01-17T09:47:04.906Z,994.66
2018-01-17T09:48:04.862Z,994.60
2018-01-17T09:49:04.815Z,994.65
2018-01-17T09:50:04.778Z,994.68
2018-01-17T09:51:04.728Z,994.74
2018-01-17T09:52:04.716Z,994.71
2018-01-17T09:53:04.650Z,994.72
2018-01-17T09:54:04.609Z,994.73
2018-01-17T09:55:04.595Z,994.78
2018-01-17T09:56:04.529Z,994.80
2018-01-17T09:57:04.492Z,994.76
2018-01-17T09:58:04.468Z,994.86
2018-01-17T09:59:04.418Z,995.00
2018-01-17T10:00:04.364Z,994.95
2018-01-17T10:01:04.314Z,994.96
2018-01-17T10:02:04.272Z,995.00
2018-01-17T10:03:04.232Z,994.99
2018-01-17T10:04:04.212Z,995.06
2018-01-17T10:05:04.143Z,995.04
2018-01-17T10:06:04.123Z,995.16
2018-01-17T10:07:04.053Z,995.16
2018-01-17T10:08:04.016Z,994.96
2018-01-17T10:09:03.970Z,995.02
2018-01-17T10:10:03.956Z,994.99
2018-01-17T10:11:03.905Z,995.15
2018-01-17T10:12:03.843Z,995.12
2018-01-17T10:13:03.801Z,995.08
2018-01-17T10:14:03.751Z,995.11
2018-01-17T10:15:03.738Z,995.09
2018-01-17T10:16:03.669Z,995.13
2018-01-17T10:17:03.637Z,995.13
2018-01-17T10:18:03.587Z,995.16
2018-01-17T10:19:03.544Z,995.15
2018-01-17T10:20:03.503Z,995.11
2018-01-17T10:21:03.495Z,995.14
2018-01-17T10:22:03.420Z,995.17
2018-01-17T10:23:03.382Z,995.21
2018-01-17T10:24:03.335Z,995.17
2018-01-17T10:25:03.291Z,995.21
2018-01-17T10:26:03.256Z,995.28
2018-01-17T10:27:03.233Z,995.29
2018-01-17T10:28:03.162Z,995.24
2018-01-17T10:29:03.128Z,995.26
2018-01-17T10:30:03.090Z,995.28
2018-01-17T10:31:03.035Z,995.30
2018-01-17T10:32:02.994Z,995.36
2018-01-17T10:33:02.982Z,995.39
2018-01-17T10:34:02.916Z,995.38
2018-01-17T10:35:02.883Z,995.33
2018-01-17T10:36:02.837Z,995.28
2018-01-17T10:37:02.788Z,995.33
2018-01-17T10:38:02.770Z,995.33
2018-01-17T10:39:02.701Z,995.35
2018-01-17T10:40:02.665Z,995.39
2018-01-17T10:41:02.624Z,995.39
2018-01-17T10:42:02.586Z,995.29
2018-01-17T10:43:02.559Z,995.34
2018-01-17T10:44:02.491Z,995.42
2018-01-17T10:45:02.447Z,995.44
2018-01-17T10:46:02.434Z,995.51
2018-01-17T10:47:02.359Z,995.52
2018-01-17T10:48:02.356Z,995.53
2018-01-17T10:49:02.280Z,995.40
2018-01-17T10:50:02.234Z,995.50
2018-01-17T10:51:02.195Z,995.40
2018-01-17T10:52:02.155Z,995.44
2018-01-17T10:53:02.112Z,995.41
2018-01-17T10:54:02.100Z,995.42
2018-01-17T10:55:02.046Z,995.48
2018-01-17T10:56:01.976Z,995.52
2018-01-17T10:57:01.934Z,995.46
2018-01-17T10:58:01.893Z,995.47
2018-01-17T10:59:01.856Z,995.40
2018-01-17T11:00:01.904Z,995.45
2018-01-17T11:01:01.775Z,995.37
2018-01-17T11:02:01.723Z,995.47
2018-01-17T11:03:01.687Z,995.40
2018-01-17T11:04:01.642Z,995.52
2018-01-17T11:05:01.601Z,995.51
2018-01-17T11:06:01.581Z,995.47
2018-01-17T11:07:01.516Z,995.44
2018-01-17T11:08:01.465Z,995.59
2018-01-17T11:09:01.437Z,995.64
2018-01-17T11:10:01.385Z,995.55
2018-01-17T11:11:01.336Z,995.50
2018-01-17T11:12:01.325Z,995.53
2018-01-17T11:13:01.261Z,995.53
2018-01-17T11:14:01.224Z,995.52
2018-01-17T11:15:01.173Z,995.54
2018-01-17T11:16:01.128Z,995.59
2018-01-17T11:17:10.759Z,995.63
2018-01-17T11:18:01.046Z,995.47
2018-01-17T11:19:01.001Z,995.54
2018-01-17T11:20:00.965Z,995.57
2018-01-17T11:21:00.912Z,995.70
2018-01-17T11:22:00.878Z,995.55
2018-01-17T11:23:00.850Z,995.74
2018-01-17T11:24:00.831Z,995.70
2018-01-17T11:25:00.742Z,995.75
2018-01-17T11:26:00.710Z,995.58
2018-01-17T11:27:00.655Z,995.58
2018-01-17T11:28:00.616Z,995.52
2018-01-17T11:29:00.610Z,995.53
2018-01-17T11:30:00.541Z,995.63
2018-01-17T11:31:00.492Z,995.57
2018-01-17T11:32:00.442Z,995.69
2018-01-17T11:33:00.407Z,995.68
2018-01-17T11:34:00.376Z,995.63
2018-01-17T11:35:00.342Z,995.66
2018-01-17T11:36:00.279Z,995.69
2018-01-17T11:37:00.232Z,995.62
2018-01-17T11:38:00.193Z,995.65
2018-01-17T11:39:00.154Z,995.67
2018-01-17T11:40:00.144Z,995.77
2018-01-17T11:41:00.078Z,995.74
2018-01-17T11:42:00.027Z,995.75
2018-01-17T11:42:59.985Z,995.74
2018-01-17T11:43:59.936Z,995.76
2018-01-17T11:44:59.892Z,995.77
2018-01-17T11:45:59.887Z,995.76
2018-01-17T11:46:59.818Z,995.78
2018-01-17T11:47:59.776Z,995.85
2018-01-17T11:48:59.738Z,995.78
2018-01-17T11:49:59.739Z,995.84
2018-01-17T11:50:59.648Z,995.84
2018-01-17T11:51:59.630Z,995.90
2018-01-17T11:52:59.567Z,995.89
2018-01-17T11:53:59.514Z,995.87
2018-01-17T11:54:59.489Z,995.88
2018-01-17T11:55:59.429Z,995.88
2018-01-17T11:56:59.433Z,995.86
2018-01-17T11:57:59.374Z,995.95
2018-01-17T11:58:59.340Z,995.86
2018-01-17T11:59:59.319Z,995.91
2018-01-17T12:00:59.237Z,995.95
2018-01-17T12:01:59.182Z,995.91
2018-01-17T12:02:59.161Z,995.92
2018-01-17T12:03:59.093Z,995.89
2018-01-17T12:04:59.046Z,995.94
2018-01-17T12:05:59.004Z,995.96
2018-01-17T12:06:58.964Z,996.06
2018-01-17T12:07:58.955Z,996.12
2018-01-17T12:08:58.884Z,996.09
2018-01-17T12:09:58.834Z,996.02
2018-01-17T12:10:58.798Z,996.04
2018-01-17T12:11:58.752Z,996.04
2018-01-17T12:12:58.702Z,996.11
2018-01-17T12:13:58.684Z,996.06
2018-01-17T12:14:58.637Z,996.07
2018-01-17T12:15:58.583Z,996.00
2018-01-17T12:16:58.547Z,996.15
2018-01-17T12:17:58.540Z,996.11
2018-01-17T12:18:58.454Z,996.00
2018-01-17T12:19:58.407Z,996.15
2018-01-17T12:20:58.379Z,996.09
2018-01-17T12:21:58.326Z,995.99
2018-01-17T12:22:58.316Z,996.09
2018-01-17T12:23:58.276Z,996.04
2018-01-17T12:24:58.201Z,996.09
2018-01-17T12:25:58.156Z,995.97
2018-01-17T12:26:58.121Z,996.02
2018-01-17T12:27:58.070Z,996.06